sensor_id;sensor_type;location;lat;lon;timestamp;P1;durP1;ratioP1;P2;durP2;ratioP2
73266;SDS011;61495;53.400;7.608;2023-05-07T00:00:15;23.83;;;11.18;;
73266;SDS011;61495;53.400;7.608;2023-05-07T00:02:43;22.98;;;12.88;;
73266;SDS011;61495;53.400;7.608;2023-05-07T00:05:14;23.10;;;11.77;;
73266;SDS011;61495;53.400;7.608;2023-05-07T00:07:41;22.80;;;13.73;;
73266;SDS011;61495;53.400;7.608;2023-05-07T00:10:07;26.30;;;11.80;;
73266;SDS011;61495;53.400;7.608;2023-05-07T00:12:32;22.73;;;11.13;;
73266;SDS011;61495;53.400;7.608;2023-05-07T00:15:04;24.38;;;11.95;;
73266;SDS011;61495;53.400;7.608;2023-05-07T00:17:30;21.33;;;10.75;;
73266;SDS011;61495;53.400;7.608;2023-05-07T00:19:56;24.08;;;12.88;;
73266;SDS011;61495;53.400;7.608;2023-05-07T00:22:21;24.98;;;12.80;;
73266;SDS011;61495;53.400;7.608;2023-05-07T00:24:47;23.60;;;11.55;;
73266;SDS011;61495;53.400;7.608;2023-05-07T00:27:12;21.40;;;10.85;;
73266;SDS011;61495;53.400;7.608;2023-05-07T00:29:37;22.10;;;11.23;;
73266;SDS011;61495;53.400;7.608;2023-05-07T00:32:03;22.35;;;11.90;;
73266;SDS011;61495;53.400;7.608;2023-05-07T00:34:29;22.70;;;12.13;;
73266;SDS011;61495;53.400;7.608;2023-05-07T00:36:55;23.90;;;13.65;;
73266;SDS011;61495;53.400;7.608;2023-05-07T00:39:20;26.33;;;11.63;;
73266;SDS011;61495;53.400;7.608;2023-05-07T00:41:45;23.88;;;13.13;;
73266;SDS011;61495;53.400;7.608;2023-05-07T00:44:11;24.63;;;12.60;;
73266;SDS011;61495;53.400;7.608;2023-05-07T00:46:36;26.50;;;13.02;;
73266;SDS011;61495;53.400;7.608;2023-05-07T00:49:02;27.73;;;13.70;;
73266;SDS011;61495;53.400;7.608;2023-05-07T00:51:28;24.80;;;11.93;;
73266;SDS011;61495;53.400;7.608;2023-05-07T00:53:54;22.77;;;12.50;;
73266;SDS011;61495;53.400;7.608;2023-05-07T00:56:22;23.92;;;12.80;;
73266;SDS011;61495;53.400;7.608;2023-05-07T00:58:48;26.95;;;13.77;;
73266;SDS011;61495;53.400;7.608;2023-05-07T01:01:14;22.73;;;12.70;;
73266;SDS011;61495;53.400;7.608;2023-05-07T01:03:41;21.80;;;12.48;;
73266;SDS011;61495;53.400;7.608;2023-05-07T01:06:07;22.33;;;12.75;;
73266;SDS011;61495;53.400;7.608;2023-05-07T01:08:34;25.67;;;12.05;;
73266;SDS011;61495;53.400;7.608;2023-05-07T01:11:00;23.52;;;13.27;;
73266;SDS011;61495;53.400;7.608;2023-05-07T01:13:26;20.30;;;11.20;;
73266;SDS011;61495;53.400;7.608;2023-05-07T01:15:52;24.30;;;13.88;;
73266;SDS011;61495;53.400;7.608;2023-05-07T01:18:18;21.48;;;13.10;;
73266;SDS011;61495;53.400;7.608;2023-05-07T01:20:43;26.58;;;12.48;;
73266;SDS011;61495;53.400;7.608;2023-05-07T01:23:10;25.88;;;13.13;;
73266;SDS011;61495;53.400;7.608;2023-05-07T01:25:36;25.48;;;14.85;;
73266;SDS011;61495;53.400;7.608;2023-05-07T01:28:01;25.95;;;13.55;;
73266;SDS011;61495;53.400;7.608;2023-05-07T01:30:27;23.48;;;11.93;;
73266;SDS011;61495;53.400;7.608;2023-05-07T01:32:56;23.27;;;12.85;;
73266;SDS011;61495;53.400;7.608;2023-05-07T01:35:29;26.08;;;13.57;;
73266;SDS011;61495;53.400;7.608;2023-05-07T01:37:57;26.00;;;12.90;;
73266;SDS011;61495;53.400;7.608;2023-05-07T01:40:23;27.23;;;13.25;;
73266;SDS011;61495;53.400;7.608;2023-05-07T01:42:50;27.08;;;13.13;;
73266;SDS011;61495;53.400;7.608;2023-05-07T01:45:17;24.63;;;14.02;;
73266;SDS011;61495;53.400;7.608;2023-05-07T01:47:42;25.75;;;12.60;;
73266;SDS011;61495;53.400;7.608;2023-05-07T01:50:08;26.02;;;15.23;;
73266;SDS011;61495;53.400;7.608;2023-05-07T01:52:35;23.85;;;12.98;;
73266;SDS011;61495;53.400;7.608;2023-05-07T01:55:02;23.42;;;14.20;;
73266;SDS011;61495;53.400;7.608;2023-05-07T01:57:28;25.50;;;13.70;;
73266;SDS011;61495;53.400;7.608;2023-05-07T01:59:53;23.88;;;14.05;;
73266;SDS011;61495;53.400;7.608;2023-05-07T02:02:18;26.17;;;14.57;;
73266;SDS011;61495;53.400;7.608;2023-05-07T02:04:44;23.92;;;13.77;;
73266;SDS011;61495;53.400;7.608;2023-05-07T02:07:09;22.42;;;13.55;;
73266;SDS011;61495;53.400;7.608;2023-05-07T02:09:35;24.65;;;13.40;;
73266;SDS011;61495;53.400;7.608;2023-05-07T02:12:00;24.05;;;13.88;;
73266;SDS011;61495;53.400;7.608;2023-05-07T02:14:26;25.58;;;14.10;;
73266;SDS011;61495;53.400;7.608;2023-05-07T02:16:51;26.65;;;14.38;;
73266;SDS011;61495;53.400;7.608;2023-05-07T02:19:17;27.25;;;13.10;;
73266;SDS011;61495;53.400;7.608;2023-05-07T02:21:43;26.52;;;14.68;;
73266;SDS011;61495;53.400;7.608;2023-05-07T02:24:08;23.75;;;14.00;;
73266;SDS011;61495;53.400;7.608;2023-05-07T02:26:34;24.30;;;14.25;;
73266;SDS011;61495;53.400;7.608;2023-05-07T02:28:59;25.23;;;13.95;;
73266;SDS011;61495;53.400;7.608;2023-05-07T02:31:24;24.35;;;12.50;;
73266;SDS011;61495;53.400;7.608;2023-05-07T02:33:55;20.67;;;13.63;;
73266;SDS011;61495;53.400;7.608;2023-05-07T02:36:20;19.80;;;11.20;;
73266;SDS011;61495;53.400;7.608;2023-05-07T02:38:45;24.48;;;12.13;;
73266;SDS011;61495;53.400;7.608;2023-05-07T02:41:11;20.98;;;11.40;;
73266;SDS011;61495;53.400;7.608;2023-05-07T02:43:36;20.45;;;11.07;;
73266;SDS011;61495;53.400;7.608;2023-05-07T02:46:05;17.80;;;10.50;;
73266;SDS011;61495;53.400;7.608;2023-05-07T02:48:32;20.35;;;10.18;;
73266;SDS011;61495;53.400;7.608;2023-05-07T02:50:58;19.80;;;10.48;;
73266;SDS011;61495;53.400;7.608;2023-05-07T02:53:24;20.85;;;11.65;;
73266;SDS011;61495;53.400;7.608;2023-05-07T02:55:57;18.95;;;9.95;;
73266;SDS011;61495;53.400;7.608;2023-05-07T02:58:24;16.67;;;10.02;;
73266;SDS011;61495;53.400;7.608;2023-05-07T03:00:50;21.45;;;11.57;;
73266;SDS011;61495;53.400;7.608;2023-05-07T03:03:24;22.73;;;13.05;;
73266;SDS011;61495;53.400;7.608;2023-05-07T03:05:50;26.90;;;15.20;;
73266;SDS011;61495;53.400;7.608;2023-05-07T03:08:15;26.42;;;14.00;;
73266;SDS011;61495;53.400;7.608;2023-05-07T03:10:42;28.95;;;15.15;;
73266;SDS011;61495;53.400;7.608;2023-05-07T03:13:07;29.38;;;15.90;;
73266;SDS011;61495;53.400;7.608;2023-05-07T03:15:32;26.38;;;16.00;;
73266;SDS011;61495;53.400;7.608;2023-05-07T03:17:58;26.92;;;15.30;;
73266;SDS011;61495;53.400;7.608;2023-05-07T03:20:23;30.02;;;15.35;;
73266;SDS011;61495;53.400;7.608;2023-05-07T03:22:48;23.13;;;14.50;;
73266;SDS011;61495;53.400;7.608;2023-05-07T03:25:14;25.05;;;13.23;;
73266;SDS011;61495;53.400;7.608;2023-05-07T03:27:39;27.48;;;13.90;;
73266;SDS011;61495;53.400;7.608;2023-05-07T03:30:07;23.80;;;14.15;;
73266;SDS011;61495;53.400;7.608;2023-05-07T03:32:34;25.95;;;13.07;;
73266;SDS011;61495;53.400;7.608;2023-05-07T03:35:03;25.10;;;13.40;;
73266;SDS011;61495;53.400;7.608;2023-05-07T03:37:29;23.05;;;13.10;;
73266;SDS011;61495;53.400;7.608;2023-05-07T03:39:54;20.05;;;11.95;;
73266;SDS011;61495;53.400;7.608;2023-05-07T03:42:20;22.15;;;12.43;;
73266;SDS011;61495;53.400;7.608;2023-05-07T03:44:45;19.65;;;11.07;;
73266;SDS011;61495;53.400;7.608;2023-05-07T03:47:10;20.88;;;10.40;;
73266;SDS011;61495;53.400;7.608;2023-05-07T03:49:36;21.30;;;11.90;;
73266;SDS011;61495;53.400;7.608;2023-05-07T03:52:02;19.10;;;10.45;;
73266;SDS011;61495;53.400;7.608;2023-05-07T03:54:27;21.10;;;11.15;;
73266;SDS011;61495;53.400;7.608;2023-05-07T03:56:52;20.92;;;12.32;;
73266;SDS011;61495;53.400;7.608;2023-05-07T03:59:18;21.27;;;10.77;;
73266;SDS011;61495;53.400;7.608;2023-05-07T04:01:43;23.27;;;11.52;;
73266;SDS011;61495;53.400;7.608;2023-05-07T04:04:14;24.33;;;12.80;;
73266;SDS011;61495;53.400;7.608;2023-05-07T04:06:40;18.10;;;11.02;;
73266;SDS011;61495;53.400;7.608;2023-05-07T04:09:07;23.38;;;13.52;;
73266;SDS011;61495;53.400;7.608;2023-05-07T04:11:33;20.73;;;12.02;;
73266;SDS011;61495;53.400;7.608;2023-05-07T04:13:58;22.90;;;12.00;;
73266;SDS011;61495;53.400;7.608;2023-05-07T04:16:24;21.75;;;11.73;;
73266;SDS011;61495;53.400;7.608;2023-05-07T04:18:49;21.90;;;12.00;;
73266;SDS011;61495;53.400;7.608;2023-05-07T04:21:18;20.17;;;11.90;;
73266;SDS011;61495;53.400;7.608;2023-05-07T04:23:45;20.65;;;12.60;;
73266;SDS011;61495;53.400;7.608;2023-05-07T04:26:11;20.85;;;11.65;;
73266;SDS011;61495;53.400;7.608;2023-05-07T04:28:37;21.77;;;12.20;;
73266;SDS011;61495;53.400;7.608;2023-05-07T04:31:04;22.98;;;12.90;;
73266;SDS011;61495;53.400;7.608;2023-05-07T04:33:29;23.63;;;12.68;;
73266;SDS011;61495;53.400;7.608;2023-05-07T04:35:55;23.92;;;13.48;;
73266;SDS011;61495;53.400;7.608;2023-05-07T04:38:20;24.08;;;13.63;;
73266;SDS011;61495;53.400;7.608;2023-05-07T04:40:46;23.23;;;12.95;;
73266;SDS011;61495;53.400;7.608;2023-05-07T04:43:11;27.42;;;14.27;;
73266;SDS011;61495;53.400;7.608;2023-05-07T04:45:38;24.92;;;15.00;;
73266;SDS011;61495;53.400;7.608;2023-05-07T04:48:06;29.00;;;15.85;;
73266;SDS011;61495;53.400;7.608;2023-05-07T04:50:31;26.90;;;15.80;;
73266;SDS011;61495;53.400;7.608;2023-05-07T04:52:57;30.83;;;15.30;;
73266;SDS011;61495;53.400;7.608;2023-05-07T04:55:22;27.17;;;16.05;;
73266;SDS011;61495;53.400;7.608;2023-05-07T04:57:47;28.08;;;16.00;;
73266;SDS011;61495;53.400;7.608;2023-05-07T05:00:13;26.88;;;14.75;;
73266;SDS011;61495;53.400;7.608;2023-05-07T05:05:09;24.67;;;14.20;;
73266;SDS011;61495;53.400;7.608;2023-05-07T05:07:35;24.20;;;14.52;;
73266;SDS011;61495;53.400;7.608;2023-05-07T05:10:01;22.98;;;12.43;;
73266;SDS011;61495;53.400;7.608;2023-05-07T05:12:27;24.05;;;13.57;;
73266;SDS011;61495;53.400;7.608;2023-05-07T05:14:53;23.67;;;13.05;;
73266;SDS011;61495;53.400;7.608;2023-05-07T05:17:19;25.75;;;13.43;;
73266;SDS011;61495;53.400;7.608;2023-05-07T05:19:44;25.10;;;13.52;;
73266;SDS011;61495;53.400;7.608;2023-05-07T05:22:09;20.58;;;12.52;;
73266;SDS011;61495;53.400;7.608;2023-05-07T05:24:35;23.63;;;13.13;;
73266;SDS011;61495;53.400;7.608;2023-05-07T05:27:00;24.08;;;13.82;;
73266;SDS011;61495;53.400;7.608;2023-05-07T05:29:27;24.90;;;12.90;;
73266;SDS011;61495;53.400;7.608;2023-05-07T05:31:52;23.40;;;12.98;;
73266;SDS011;61495;53.400;7.608;2023-05-07T05:34:17;23.33;;;12.63;;
73266;SDS011;61495;53.400;7.608;2023-05-07T05:36:44;25.77;;;13.68;;
73266;SDS011;61495;53.400;7.608;2023-05-07T05:39:10;25.63;;;13.02;;
73266;SDS011;61495;53.400;7.608;2023-05-07T05:41:35;26.50;;;13.20;;
73266;SDS011;61495;53.400;7.608;2023-05-07T05:44:01;27.02;;;13.60;;
73266;SDS011;61495;53.400;7.608;2023-05-07T05:46:26;29.75;;;14.25;;
73266;SDS011;61495;53.400;7.608;2023-05-07T05:48:51;30.67;;;16.70;;
73266;SDS011;61495;53.400;7.608;2023-05-07T05:51:17;25.60;;;14.27;;
73266;SDS011;61495;53.400;7.608;2023-05-07T05:53:42;28.10;;;13.73;;
73266;SDS011;61495;53.400;7.608;2023-05-07T05:56:07;27.75;;;14.80;;
73266;SDS011;61495;53.400;7.608;2023-05-07T05:58:33;30.88;;;15.95;;
73266;SDS011;61495;53.400;7.608;2023-05-07T06:00:59;28.95;;;16.10;;
73266;SDS011;61495;53.400;7.608;2023-05-07T06:03:24;32.00;;;17.98;;
73266;SDS011;61495;53.400;7.608;2023-05-07T06:05:49;31.70;;;16.48;;
73266;SDS011;61495;53.400;7.608;2023-05-07T06:08:15;27.08;;;14.80;;
73266;SDS011;61495;53.400;7.608;2023-05-07T06:10:40;31.00;;;15.73;;
73266;SDS011;61495;53.400;7.608;2023-05-07T06:13:06;29.20;;;15.45;;
73266;SDS011;61495;53.400;7.608;2023-05-07T06:15:32;28.08;;;13.95;;
73266;SDS011;61495;53.400;7.608;2023-05-07T06:17:57;25.05;;;13.98;;
73266;SDS011;61495;53.400;7.608;2023-05-07T06:20:23;25.55;;;13.38;;
73266;SDS011;61495;53.400;7.608;2023-05-07T06:22:48;27.88;;;14.82;;
73266;SDS011;61495;53.400;7.608;2023-05-07T06:25:14;24.65;;;14.23;;
73266;SDS011;61495;53.400;7.608;2023-05-07T06:27:40;27.35;;;16.20;;
73266;SDS011;61495;53.400;7.608;2023-05-07T06:30:05;28.63;;;13.57;;
73266;SDS011;61495;53.400;7.608;2023-05-07T06:32:31;28.25;;;14.82;;
73266;SDS011;61495;53.400;7.608;2023-05-07T06:34:57;25.85;;;15.15;;
73266;SDS011;61495;53.400;7.608;2023-05-07T06:37:22;28.45;;;16.13;;
73266;SDS011;61495;53.400;7.608;2023-05-07T06:39:47;28.95;;;15.15;;
73266;SDS011;61495;53.400;7.608;2023-05-07T06:42:13;26.50;;;14.48;;
73266;SDS011;61495;53.400;7.608;2023-05-07T06:44:38;29.02;;;16.92;;
73266;SDS011;61495;53.400;7.608;2023-05-07T06:47:03;28.30;;;16.88;;
73266;SDS011;61495;53.400;7.608;2023-05-07T06:49:30;29.92;;;14.52;;
73266;SDS011;61495;53.400;7.608;2023-05-07T06:51:56;28.15;;;15.80;;
73266;SDS011;61495;53.400;7.608;2023-05-07T06:54:22;23.83;;;13.18;;
73266;SDS011;61495;53.400;7.608;2023-05-07T06:56:48;25.20;;;13.55;;
73266;SDS011;61495;53.400;7.608;2023-05-07T06:59:13;26.45;;;14.73;;
73266;SDS011;61495;53.400;7.608;2023-05-07T07:01:38;25.25;;;14.45;;
73266;SDS011;61495;53.400;7.608;2023-05-07T07:04:04;22.02;;;12.20;;
73266;SDS011;61495;53.400;7.608;2023-05-07T07:06:29;19.65;;;11.52;;
73266;SDS011;61495;53.400;7.608;2023-05-07T07:08:56;21.92;;;13.30;;
73266;SDS011;61495;53.400;7.608;2023-05-07T07:11:22;21.52;;;12.52;;
73266;SDS011;61495;53.400;7.608;2023-05-07T07:13:48;23.88;;;13.32;;
73266;SDS011;61495;53.400;7.608;2023-05-07T07:16:13;23.13;;;13.82;;
73266;SDS011;61495;53.400;7.608;2023-05-07T07:18:39;21.25;;;13.52;;
73266;SDS011;61495;53.400;7.608;2023-05-07T07:21:04;22.55;;;12.98;;
73266;SDS011;61495;53.400;7.608;2023-05-07T07:23:30;28.38;;;14.60;;
73266;SDS011;61495;53.400;7.608;2023-05-07T07:25:55;22.42;;;12.82;;
73266;SDS011;61495;53.400;7.608;2023-05-07T07:28:21;24.17;;;13.60;;
73266;SDS011;61495;53.400;7.608;2023-05-07T07:30:47;23.08;;;12.95;;
73266;SDS011;61495;53.400;7.608;2023-05-07T07:33:12;22.38;;;12.93;;
73266;SDS011;61495;53.400;7.608;2023-05-07T07:35:38;20.83;;;12.90;;
73266;SDS011;61495;53.400;7.608;2023-05-07T07:38:03;21.20;;;13.35;;
73266;SDS011;61495;53.400;7.608;2023-05-07T07:40:28;23.17;;;12.90;;
73266;SDS011;61495;53.400;7.608;2023-05-07T07:42:54;22.38;;;12.55;;
73266;SDS011;61495;53.400;7.608;2023-05-07T07:45:19;24.05;;;12.27;;
73266;SDS011;61495;53.400;7.608;2023-05-07T07:47:45;21.70;;;14.02;;
73266;SDS011;61495;53.400;7.608;2023-05-07T07:50:10;25.30;;;14.38;;
73266;SDS011;61495;53.400;7.608;2023-05-07T07:52:36;21.52;;;12.60;;
73266;SDS011;61495;53.400;7.608;2023-05-07T07:55:01;22.48;;;13.73;;
73266;SDS011;61495;53.400;7.608;2023-05-07T07:57:27;23.23;;;13.20;;
73266;SDS011;61495;53.400;7.608;2023-05-07T07:59:52;21.73;;;12.70;;
73266;SDS011;61495;53.400;7.608;2023-05-07T08:02:17;20.73;;;12.05;;
73266;SDS011;61495;53.400;7.608;2023-05-07T08:04:43;17.40;;;10.60;;
73266;SDS011;61495;53.400;7.608;2023-05-07T08:07:09;19.90;;;11.02;;
73266;SDS011;61495;53.400;7.608;2023-05-07T08:09:36;20.23;;;11.55;;
73266;SDS011;61495;53.400;7.608;2023-05-07T08:12:03;18.00;;;10.75;;
73266;SDS011;61495;53.400;7.608;2023-05-07T08:14:29;16.77;;;10.32;;
73266;SDS011;61495;53.400;7.608;2023-05-07T08:16:54;17.52;;;10.75;;
73266;SDS011;61495;53.400;7.608;2023-05-07T08:19:20;18.30;;;9.93;;
73266;SDS011;61495;53.400;7.608;2023-05-07T08:21:46;17.00;;;10.40;;
73266;SDS011;61495;53.400;7.608;2023-05-07T08:24:15;17.27;;;10.30;;
73266;SDS011;61495;53.400;7.608;2023-05-07T08:26:41;18.65;;;10.35;;
73266;SDS011;61495;53.400;7.608;2023-05-07T08:29:06;17.08;;;9.73;;
73266;SDS011;61495;53.400;7.608;2023-05-07T08:31:32;19.17;;;10.52;;
73266;SDS011;61495;53.400;7.608;2023-05-07T08:33:58;16.13;;;10.25;;
73266;SDS011;61495;53.400;7.608;2023-05-07T08:36:24;18.70;;;11.38;;
73266;SDS011;61495;53.400;7.608;2023-05-07T08:38:50;18.95;;;11.27;;
73266;SDS011;61495;53.400;7.608;2023-05-07T08:41:16;18.58;;;11.70;;
73266;SDS011;61495;53.400;7.608;2023-05-07T08:43:42;16.50;;;11.15;;
73266;SDS011;61495;53.400;7.608;2023-05-07T08:46:12;17.40;;;11.45;;
73266;SDS011;61495;53.400;7.608;2023-05-07T08:48:43;16.42;;;10.15;;
73266;SDS011;61495;53.400;7.608;2023-05-07T08:51:11;15.18;;;9.82;;
73266;SDS011;61495;53.400;7.608;2023-05-07T08:53:38;13.15;;;9.80;;
73266;SDS011;61495;53.400;7.608;2023-05-07T08:56:08;15.77;;;10.07;;
73266;SDS011;61495;53.400;7.608;2023-05-07T08:58:34;15.52;;;9.05;;
73266;SDS011;61495;53.400;7.608;2023-05-07T09:01:01;16.08;;;9.75;;
73266;SDS011;61495;53.400;7.608;2023-05-07T09:03:32;15.45;;;10.15;;
73266;SDS011;61495;53.400;7.608;2023-05-07T09:05:58;15.77;;;9.65;;
73266;SDS011;61495;53.400;7.608;2023-05-07T09:08:26;14.70;;;9.25;;
73266;SDS011;61495;53.400;7.608;2023-05-07T09:10:52;13.50;;;8.80;;
73266;SDS011;61495;53.400;7.608;2023-05-07T09:13:18;14.07;;;8.02;;
73266;SDS011;61495;53.400;7.608;2023-05-07T09:15:44;13.98;;;8.88;;
73266;SDS011;61495;53.400;7.608;2023-05-07T09:18:10;12.68;;;7.80;;
73266;SDS011;61495;53.400;7.608;2023-05-07T09:20:36;11.88;;;8.27;;
73266;SDS011;61495;53.400;7.608;2023-05-07T09:23:02;11.02;;;7.32;;
73266;SDS011;61495;53.400;7.608;2023-05-07T09:25:28;10.48;;;6.50;;
73266;SDS011;61495;53.400;7.608;2023-05-07T09:27:54;10.52;;;5.90;;
73266;SDS011;61495;53.400;7.608;2023-05-07T09:30:20;9.85;;;6.47;;
73266;SDS011;61495;53.400;7.608;2023-05-07T09:32:45;9.98;;;5.45;;
73266;SDS011;61495;53.400;7.608;2023-05-07T09:35:15;9.88;;;6.30;;
73266;SDS011;61495;53.400;7.608;2023-05-07T09:37:46;9.52;;;5.00;;
73266;SDS011;61495;53.400;7.608;2023-05-07T09:40:45;10.13;;;5.70;;
73266;SDS011;61495;53.400;7.608;2023-05-07T09:43:10;10.75;;;6.88;;
73266;SDS011;61495;53.400;7.608;2023-05-07T09:45:37;10.13;;;6.20;;
73266;SDS011;61495;53.400;7.608;2023-05-07T09:48:04;10.45;;;7.68;;
73266;SDS011;61495;53.400;7.608;2023-05-07T09:50:38;10.40;;;7.18;;
73266;SDS011;61495;53.400;7.608;2023-05-07T09:53:13;10.82;;;6.57;;
73266;SDS011;61495;53.400;7.608;2023-05-07T09:55:39;11.30;;;7.60;;
73266;SDS011;61495;53.400;7.608;2023-05-07T09:58:05;10.60;;;7.93;;
73266;SDS011;61495;53.400;7.608;2023-05-07T10:00:31;11.35;;;7.07;;
73266;SDS011;61495;53.400;7.608;2023-05-07T10:02:57;9.98;;;6.82;;
73266;SDS011;61495;53.400;7.608;2023-05-07T10:05:25;10.65;;;7.00;;
73266;SDS011;61495;53.400;7.608;2023-05-07T10:07:51;9.43;;;6.03;;
73266;SDS011;61495;53.400;7.608;2023-05-07T10:10:18;13.07;;;7.53;;
73266;SDS011;61495;53.400;7.608;2023-05-07T10:12:44;10.45;;;6.75;;
73266;SDS011;61495;53.400;7.608;2023-05-07T10:15:10;10.80;;;6.88;;
73266;SDS011;61495;53.400;7.608;2023-05-07T10:17:37;11.77;;;7.28;;
73266;SDS011;61495;53.400;7.608;2023-05-07T10:20:04;9.25;;;5.70;;
73266;SDS011;61495;53.400;7.608;2023-05-07T10:22:31;10.52;;;6.65;;
73266;SDS011;61495;53.400;7.608;2023-05-07T10:25:02;11.32;;;7.65;;
73266;SDS011;61495;53.400;7.608;2023-05-07T10:27:31;11.50;;;8.23;;
73266;SDS011;61495;53.400;7.608;2023-05-07T10:32:30;10.50;;;6.10;;
73266;SDS011;61495;53.400;7.608;2023-05-07T10:35:00;10.00;;;6.88;;
73266;SDS011;61495;53.400;7.608;2023-05-07T10:37:28;9.95;;;6.28;;
73266;SDS011;61495;53.400;7.608;2023-05-07T10:39:54;19.50;;;7.93;;
73266;SDS011;61495;53.400;7.608;2023-05-07T10:42:19;11.07;;;6.55;;
73266;SDS011;61495;53.400;7.608;2023-05-07T10:44:45;11.07;;;7.28;;
73266;SDS011;61495;53.400;7.608;2023-05-07T10:47:11;11.77;;;7.63;;
73266;SDS011;61495;53.400;7.608;2023-05-07T10:52:12;10.38;;;6.75;;
73266;SDS011;61495;53.400;7.608;2023-05-07T10:54:39;9.10;;;5.78;;
73266;SDS011;61495;53.400;7.608;2023-05-07T11:00:03;9.25;;;5.85;;
73266;SDS011;61495;53.400;7.608;2023-05-07T11:03:04;8.52;;;5.72;;
73266;SDS011;61495;53.400;7.608;2023-05-07T11:05:31;9.43;;;5.82;;
73266;SDS011;61495;53.400;7.608;2023-05-07T11:08:01;9.15;;;6.00;;
73266;SDS011;61495;53.400;7.608;2023-05-07T11:13:17;9.27;;;5.95;;
73266;SDS011;61495;53.400;7.608;2023-05-07T11:15:45;8.73;;;5.22;;
73266;SDS011;61495;53.400;7.608;2023-05-07T11:18:12;9.45;;;5.28;;
73266;SDS011;61495;53.400;7.608;2023-05-07T11:20:49;8.77;;;6.03;;
73266;SDS011;61495;53.400;7.608;2023-05-07T11:28:42;8.57;;;5.72;;
73266;SDS011;61495;53.400;7.608;2023-05-07T11:31:09;8.38;;;6.03;;
73266;SDS011;61495;53.400;7.608;2023-05-07T11:33:38;9.48;;;5.93;;
73266;SDS011;61495;53.400;7.608;2023-05-07T11:36:04;8.50;;;5.28;;
73266;SDS011;61495;53.400;7.608;2023-05-07T11:38:30;9.65;;;6.43;;
73266;SDS011;61495;53.400;7.608;2023-05-07T11:40:57;9.85;;;5.95;;
73266;SDS011;61495;53.400;7.608;2023-05-07T11:43:27;8.85;;;6.05;;
73266;SDS011;61495;53.400;7.608;2023-05-07T11:45:53;8.32;;;5.55;;
73266;SDS011;61495;53.400;7.608;2023-05-07T11:48:18;8.32;;;5.63;;
73266;SDS011;61495;53.400;7.608;2023-05-07T11:53:16;8.30;;;5.60;;
73266;SDS011;61495;53.400;7.608;2023-05-07T11:55:42;12.07;;;6.05;;
73266;SDS011;61495;53.400;7.608;2023-05-07T11:58:09;8.88;;;5.78;;
73266;SDS011;61495;53.400;7.608;2023-05-07T12:00:36;8.95;;;6.80;;
73266;SDS011;61495;53.400;7.608;2023-05-07T12:03:04;9.55;;;6.05;;
73266;SDS011;61495;53.400;7.608;2023-05-07T12:05:30;11.07;;;7.55;;
73266;SDS011;61495;53.400;7.608;2023-05-07T12:07:56;10.25;;;6.28;;
73266;SDS011;61495;53.400;7.608;2023-05-07T12:10:22;9.40;;;7.00;;
73266;SDS011;61495;53.400;7.608;2023-05-07T12:12:49;9.57;;;6.80;;
73266;SDS011;61495;53.400;7.608;2023-05-07T12:15:15;8.65;;;6.43;;
73266;SDS011;61495;53.400;7.608;2023-05-07T12:17:42;10.50;;;7.13;;
73266;SDS011;61495;53.400;7.608;2023-05-07T12:20:07;8.38;;;5.80;;
73266;SDS011;61495;53.400;7.608;2023-05-07T12:22:35;9.57;;;6.32;;
73266;SDS011;61495;53.400;7.608;2023-05-07T12:25:01;8.02;;;6.03;;
73266;SDS011;61495;53.400;7.608;2023-05-07T12:27:27;9.30;;;6.85;;
73266;SDS011;61495;53.400;7.608;2023-05-07T12:29:52;9.00;;;7.43;;
73266;SDS011;61495;53.400;7.608;2023-05-07T12:32:18;9.38;;;7.10;;
73266;SDS011;61495;53.400;7.608;2023-05-07T12:34:50;10.50;;;6.65;;
73266;SDS011;61495;53.400;7.608;2023-05-07T12:37:16;8.55;;;6.68;;
73266;SDS011;61495;53.400;7.608;2023-05-07T12:39:48;8.88;;;7.57;;
73266;SDS011;61495;53.400;7.608;2023-05-07T12:42:15;9.85;;;7.53;;
73266;SDS011;61495;53.400;7.608;2023-05-07T12:44:41;9.30;;;6.57;;
73266;SDS011;61495;53.400;7.608;2023-05-07T12:47:10;8.73;;;6.18;;
73266;SDS011;61495;53.400;7.608;2023-05-07T12:49:35;9.98;;;7.10;;
73266;SDS011;61495;53.400;7.608;2023-05-07T12:52:03;8.40;;;6.90;;
73266;SDS011;61495;53.400;7.608;2023-05-07T12:54:30;9.32;;;6.35;;
73266;SDS011;61495;53.400;7.608;2023-05-07T12:57:03;9.48;;;7.18;;
73266;SDS011;61495;53.400;7.608;2023-05-07T12:59:32;8.40;;;6.65;;
73266;SDS011;61495;53.400;7.608;2023-05-07T13:01:58;10.13;;;7.55;;
73266;SDS011;61495;53.400;7.608;2023-05-07T13:04:24;8.60;;;5.63;;
73266;SDS011;61495;53.400;7.608;2023-05-07T13:06:50;9.25;;;6.93;;
73266;SDS011;61495;53.400;7.608;2023-05-07T13:09:15;8.68;;;6.10;;
73266;SDS011;61495;53.400;7.608;2023-05-07T13:11:40;10.50;;;7.70;;
73266;SDS011;61495;53.400;7.608;2023-05-07T13:14:06;8.52;;;6.15;;
73266;SDS011;61495;53.400;7.608;2023-05-07T13:16:31;9.80;;;7.55;;
73266;SDS011;61495;53.400;7.608;2023-05-07T13:18:56;9.55;;;7.15;;
73266;SDS011;61495;53.400;7.608;2023-05-07T13:21:22;9.93;;;6.47;;
73266;SDS011;61495;53.400;7.608;2023-05-07T13:23:47;8.88;;;6.85;;
73266;SDS011;61495;53.400;7.608;2023-05-07T13:26:12;10.27;;;7.45;;
73266;SDS011;61495;53.400;7.608;2023-05-07T13:28:38;10.45;;;7.85;;
73266;SDS011;61495;53.400;7.608;2023-05-07T13:31:03;10.13;;;6.88;;
73266;SDS011;61495;53.400;7.608;2023-05-07T13:33:34;9.25;;;6.43;;
73266;SDS011;61495;53.400;7.608;2023-05-07T13:35:59;9.10;;;7.15;;
73266;SDS011;61495;53.400;7.608;2023-05-07T13:38:25;10.20;;;6.75;;
73266;SDS011;61495;53.400;7.608;2023-05-07T13:40:51;9.75;;;6.10;;
73266;SDS011;61495;53.400;7.608;2023-05-07T13:43:16;10.27;;;6.93;;
73266;SDS011;61495;53.400;7.608;2023-05-07T13:45:43;9.95;;;7.00;;
73266;SDS011;61495;53.400;7.608;2023-05-07T13:48:09;9.27;;;6.82;;
73266;SDS011;61495;53.400;7.608;2023-05-07T13:50:34;8.23;;;6.57;;
73266;SDS011;61495;53.400;7.608;2023-05-07T13:53:00;9.65;;;6.97;;
73266;SDS011;61495;53.400;7.608;2023-05-07T13:55:25;10.00;;;7.10;;
73266;SDS011;61495;53.400;7.608;2023-05-07T13:58:01;9.13;;;7.15;;
73266;SDS011;61495;53.400;7.608;2023-05-07T14:00:28;10.60;;;6.85;;
73266;SDS011;61495;53.400;7.608;2023-05-07T14:02:54;10.85;;;7.28;;
73266;SDS011;61495;53.400;7.608;2023-05-07T14:05:20;9.40;;;7.13;;
73266;SDS011;61495;53.400;7.608;2023-05-07T14:07:48;9.13;;;6.75;;
73266;SDS011;61495;53.400;7.608;2023-05-07T14:10:16;10.07;;;7.88;;
73266;SDS011;61495;53.400;7.608;2023-05-07T14:12:43;9.60;;;6.43;;
73266;SDS011;61495;53.400;7.608;2023-05-07T14:15:09;8.52;;;6.85;;
73266;SDS011;61495;53.400;7.608;2023-05-07T14:17:35;12.82;;;7.40;;
73266;SDS011;61495;53.400;7.608;2023-05-07T14:20:02;10.10;;;6.38;;
73266;SDS011;61495;53.400;7.608;2023-05-07T14:22:29;10.18;;;6.45;;
73266;SDS011;61495;53.400;7.608;2023-05-07T14:24:54;9.07;;;6.60;;
73266;SDS011;61495;53.400;7.608;2023-05-07T14:27:20;9.98;;;7.15;;
73266;SDS011;61495;53.400;7.608;2023-05-07T14:29:47;9.27;;;6.60;;
73266;SDS011;61495;53.400;7.608;2023-05-07T14:32:16;8.60;;;6.57;;
73266;SDS011;61495;53.400;7.608;2023-05-07T14:34:43;9.45;;;7.35;;
73266;SDS011;61495;53.400;7.608;2023-05-07T14:37:09;9.30;;;7.57;;
73266;SDS011;61495;53.400;7.608;2023-05-07T14:39:35;9.27;;;7.43;;
73266;SDS011;61495;53.400;7.608;2023-05-07T14:42:00;8.20;;;6.78;;
73266;SDS011;61495;53.400;7.608;2023-05-07T14:44:26;8.52;;;6.57;;